Flight Track Log - Related Links

Times and Time Zones

All times are in EDT time to prevent confusion due to time zone crossing. See the C-FDQV flight status page for this flight to view local times or setup timezone preferences in your user account.

Time Position Orientation Groundspeed Altitude Reporting Facility
EDT Latitude Longitude Course Direction KTS MPH feet Rate Location/Type
Sun 12:08:15 PM 49.1628 -123.1765 278° West  Level FlightAware
Sun 12:08:49 PM 49.1667 -123.2167 270° West 130 150 600  Level Vancouver Center
Sun 12:09:49 PM 49.1667 -123.2833 224° Southwest 170 196 2,700 1,700 Climbing Vancouver Center
Sun 12:10:49 PM 49.1333 -123.3333 168° South 190 219 4,000 1,300 Climbing Vancouver Center
Sun 12:11:49 PM 49.0833 -123.3167 104° East 240 276 5,300 2,100 Climbing Vancouver Center
Sun 12:12:49 PM 49.0667 -123.2167 101° East 270 311 8,200 2,450 Climbing Vancouver Center
Sun 12:13:49 PM 49.0500 -123.0833 102° East 300 345 10,200 1,450 Climbing Vancouver Center
Sun 12:14:49 PM 49.0333 -122.9667 90° East 340 391 11,100 850 Climbing Vancouver Center
Sun 12:15:49 PM 49.0333 -122.7833 82° East 400 460 11,900 1,250 Climbing Vancouver Center
Sun 12:16:49 PM 49.0500 -122.6000 90° East 420 483 13,600 1,600 Climbing Vancouver Center
Sun 12:17:49 PM 49.0500 -122.4167 83° East 440 506 15,100 1,750 Climbing Vancouver Center
Sun 12:18:49 PM 49.0667 -122.2167 90° East 450 518 17,100 1,550 Climbing Vancouver Center
Sun 12:19:49 PM 49.0667 -122.0333 83° East 460 529 18,200 1,200 Climbing Vancouver Center
Sun 12:20:49 PM 49.0833 -121.8333 83° East 470 541 19,500 1,250 Climbing Vancouver Center
Sun 12:21:49 PM 49.1000 -121.6333 83° East 480 552 20,700 1,050 Climbing Vancouver Center
Sun 12:22:49 PM 49.1167 -121.4333 90° East 490 564 21,600 1,000 Climbing Vancouver Center
Sun 12:23:49 PM 49.1167 -121.2000 83° East 500 575 22,700 1,150 Climbing Vancouver Center
Sun 12:24:49 PM 49.1333 -121.0000 84° East 510 587 23,900 1,000 Climbing Vancouver Center
Sun 12:25:49 PM 49.1500 -120.7667 83° East 510 587 24,700 950 Climbing Vancouver Center
Sun 12:26:49 PM 49.1667 -120.5500 90° East 520 598 25,800 1,100 Climbing Vancouver Center
Sun 12:27:49 PM 49.1667 -120.3333 77° East 520 598 26,900 1,050 Climbing Vancouver Center
Sun 12:28:49 PM 49.2000 -120.1167 84° East 510 587 27,900 900 Climbing Vancouver Center
Sun 12:29:49 PM 49.2167 -119.8833 76° East 510 587 28,700 950 Climbing Vancouver Center
Sun 12:30:49 PM 49.2500 -119.6833 83° East 510 587 29,800 950 Climbing Vancouver Center
Sun 12:31:49 PM 49.2667 -119.4667 76° East 510 587 30,600 1,000 Climbing Vancouver Center
Sun 12:32:49 PM 49.3000 -119.2667 83° East 500 575 31,800 900 Climbing Vancouver Center
Sun 12:33:49 PM 49.3167 -119.0667 77° East 500 575 32,400 650 Climbing Vancouver Center
Sun 12:34:49 PM 49.3500 -118.8500 90° East 500 575 33,100 600 Climbing Vancouver Center
Sun 12:35:49 PM 49.3500 -118.6500 70° East 500 575 33,600 550 Climbing Vancouver Center
Sun 12:36:49 PM 49.4000 -118.4333 90° East 500 575 34,200 500 Climbing Vancouver Center
Sun 12:37:49 PM 49.4000 -118.2333 78° East 500 575 34,600 400 Climbing Vancouver Center
Sun 12:38:49 PM 49.4333 -118.0000 82° East 500 575 35,000 200 Climbing Vancouver Center
Sun 12:39:49 PM 49.4500 -117.8167 84° East 500 575 35,000  Level Vancouver Center
Sun 12:40:49 PM 49.4667 -117.5833 83° East 500 575 35,000  Level Vancouver Center
Sun 12:41:49 PM 49.4833 -117.3667 76° East 500 575 35,000  Level Vancouver Center
Sun 12:42:49 PM 49.5167 -117.1667 83° East 500 575 35,000  Level Vancouver Center
Sun 12:43:49 PM 49.5333 -116.9500 83° East 500 575 35,000  Level Vancouver Center
Sun 12:44:49 PM 49.5500 -116.7333 83° East 500 575 35,000  Level Vancouver Center
Sun 12:45:49 PM 49.5667 -116.5333 77° East 500 575 35,000  Level Vancouver Center
Sun 12:46:49 PM 49.6000 -116.3167 83° East 500 575 35,000  Level Vancouver Center
Sun 12:47:49 PM 49.6167 -116.1167 84° East 500 575 35,000  Level Vancouver Center
Sun 12:48:49 PM 49.6333 -115.8833 82° East 490 564 35,000  Level Vancouver Center
Sun 12:49:49 PM 49.6500 -115.7000 83° East 490 564 35,000  Level Vancouver Center
Sun 12:50:49 PM 49.6667 -115.4833 83° East 490 564 35,000  Level Vancouver Center
Sun 12:51:49 PM 49.6833 -115.2667 90° East 490 564 35,000  Level Vancouver Center
Sun 12:52:49 PM 49.6833 -115.0667 77° East 490 564 35,000  Level Vancouver Center
Sun 12:53:49 PM 49.7167 -114.8500 90° East 490 564 35,000  Level Vancouver Center
Sun 12:54:23 PM 49.7167 -114.7833 90° East 490 564 35,000  Level Edmonton Center
Sun 12:55:23 PM 49.7167 -114.5667 83° East 490 564 35,000  Level Edmonton Center
Sun 12:56:23 PM 49.7333 -114.3667 83° East 490 564 35,000  Level Edmonton Center
Sun 12:57:23 PM 49.7500 -114.1500 83° East 490 564 35,000  Level Edmonton Center
Sun 12:58:23 PM 49.7667 -113.9333 83° East 500 575 35,000  Level Edmonton Center
Sun 12:59:23 PM 49.7833 -113.7167 90° East 490 564 35,000  Level Edmonton Center
Sun 01:00:23 PM 49.7833 -113.5167 83° East 500 575 35,000  Level Edmonton Center
Sun 01:01:23 PM 49.8000 -113.3000 83° East 500 575 35,000  Level Edmonton Center
Sun 01:02:23 PM 49.8167 -113.1000 83° East 500 575 35,000  Level Edmonton Center
Sun 01:03:23 PM 49.8333 -112.8833 84° East 500 575 35,000  Level Edmonton Center
Sun 01:04:23 PM 49.8500 -112.6500 83° East 500 575 35,000  Level Edmonton Center
Sun 01:05:23 PM 49.8667 -112.4500 77° East 500 575 35,000  Level Edmonton Center
Sun 01:05:58 PM 49.8833 -112.3333 90° East 510 587 35,000  Level Winnipeg Center
Sun 01:06:58 PM 49.8833 -112.1333 84° East 510 587 35,000  Level Winnipeg Center
Sun 01:07:58 PM 49.9000 -111.9000 83° East 510 587 35,000  Level Winnipeg Center
Sun 01:08:58 PM 49.9167 -111.6833 84° East 510 587 35,000  Level Winnipeg Center
Sun 01:09:58 PM 49.9333 -111.4500 90° East 510 587 35,000  Level Winnipeg Center
Sun 01:10:58 PM 49.9333 -111.2500 90° East 510 587 35,000  Level Winnipeg Center
Sun 01:11:58 PM 49.9333 -111.0000 83° East 510 587 35,000  Level Winnipeg Center
Sun 01:12:58 PM 49.9500 -110.8000 90° East 510 587 35,000  Level Winnipeg Center
Sun 01:13:58 PM 49.9500 -110.6000 84° East 510 587 35,000  Level Winnipeg Center
Sun 01:14:58 PM 49.9667 -110.3667 90° East 510 587 35,000  Level Winnipeg Center
Sun 01:15:58 PM 49.9667 -110.1500 83° East 500 575 35,000  Level Winnipeg Center
Sun 01:16:58 PM 49.9833 -109.9500 97° East 500 575 35,000  Level Winnipeg Center
Sun 01:17:58 PM 49.9667 -109.7333 83° East 500 575 35,000  Level Winnipeg Center
Sun 01:18:58 PM 49.9833 -109.5167 97° East 490 564 35,000  Level Winnipeg Center
Sun 01:19:58 PM 49.9667 -109.3000 90° East 500 575 35,000  Level Winnipeg Center
Sun 01:20:58 PM 49.9667 -109.0667 90° East 500 575 35,000  Level Winnipeg Center
Sun 01:21:58 PM 49.9667 -108.8667 90° East 490 564 35,000  Level Winnipeg Center
Sun 01:22:58 PM 49.9667 -108.6833 96° East 490 564 35,000  Level Winnipeg Center
Sun 01:23:58 PM 49.9500 -108.4333 90° East 490 564 35,000  Level Winnipeg Center
Sun 01:24:58 PM 49.9500 -108.2500 90° East 490 564 35,000  Level Winnipeg Center
Sun 01:25:58 PM 49.9500 -108.0167 90° East 490 564 35,000  Level Winnipeg Center
Sun 01:26:58 PM 49.9500 -107.8167 97° East 490 564 35,000  Level Winnipeg Center
Sun 01:27:58 PM 49.9333 -107.6167 90° East 480 552 35,000  Level Winnipeg Center
Sun 01:28:58 PM 49.9333 -107.4167 97° East 480 552 35,000  Level Winnipeg Center
Sun 01:29:58 PM 49.9167 -107.2000 90° East 480 552 35,000  Level Winnipeg Center
Sun 01:30:58 PM 49.9167 -106.9833 90° East 470 541 35,000  Level Winnipeg Center
Sun 01:31:58 PM 49.9167 -106.7833 90° East 470 541 35,000  Level Winnipeg Center
Sun 01:32:58 PM 49.9167 -106.6000 97° East 470 541 35,000  Level Winnipeg Center
Sun 01:33:58 PM 49.9000 -106.3833 98° East 460 529 35,000  Level Winnipeg Center
Sun 01:34:58 PM 49.8833 -106.2000 97° East 450 518 35,000  Level Winnipeg Center
Sun 01:35:58 PM 49.8667 -105.9833 90° East 450 518 35,000  Level Winnipeg Center
Sun 01:36:58 PM 49.8667 -105.8000 90° East 450 518 35,000  Level Winnipeg Center
Sun 01:37:58 PM 49.8667 -105.6167 97° East 450 518 35,000  Level Winnipeg Center
Sun 01:38:58 PM 49.8500 -105.4167 90° East 450 518 35,000  Level Winnipeg Center
Sun 01:39:58 PM 49.8500 -105.2333 90° East 450 518 35,000  Level Winnipeg Center
Sun 01:40:58 PM 49.8500 -105.0167 98° East 460 529 35,000  Level Winnipeg Center
Sun 01:41:58 PM 49.8333 -104.8333 97° East 470 541 35,000  Level Winnipeg Center
Sun 01:42:58 PM 49.8167 -104.6167 97° East 480 552 35,000  Level Winnipeg Center
Sun 01:43:58 PM 49.8000 -104.4167 90° East 480 552 35,000  Level Winnipeg Center
Sun 01:44:58 PM 49.8000 -104.2000 98° East 480 552 35,000  Level Winnipeg Center
Sun 01:45:58 PM 49.7833 -104.0167 97° East 470 541 35,000  Level Winnipeg Center
Sun 01:46:58 PM 49.7667 -103.8167 90° East 470 541 35,000  Level Winnipeg Center
Sun 01:47:58 PM 49.7667 -103.6000 97° East 470 541 35,000  Level Winnipeg Center
Sun 01:48:58 PM 49.7500 -103.4000 90° East 470 541 35,000  Level Winnipeg Center
Sun 01:49:58 PM 49.7500 -103.1833 106° East 470 541 35,000  Level Winnipeg Center
Sun 01:50:58 PM 49.7167 -103.0000 90° East 470 541 35,000  Level Winnipeg Center
Sun 01:51:58 PM 49.7167 -102.7833 104° East 470 541 35,000  Level Winnipeg Center
Sun 01:52:58 PM 49.6833 -102.5833 90° East 470 541 35,000  Level Winnipeg Center
Sun 01:53:58 PM 49.6833 -102.3667 90° East 470 541 35,000  Level Winnipeg Center
Sun 01:54:58 PM 49.6833 -102.1833 104° East 470 541 35,000  Level Winnipeg Center
Sun 01:55:58 PM 49.6500 -101.9833 97° East 470 541 35,000 50 Level Winnipeg Center
Sun 01:56:58 PM 49.6333 -101.7667 97° East 470 541 35,100  Climbing Winnipeg Center
Sun 01:57:58 PM 49.6167 -101.5667 90° East 470 541 35,000 -50 Descending Winnipeg Center
Sun 01:58:58 PM 49.6167 -101.3833 103° East 470 541 35,000  Level Winnipeg Center
Sun 01:59:58 PM 49.5833 -101.1667 98° East 470 541 35,000  Level Winnipeg Center
Sun 02:00:58 PM 49.5667 -100.9833 98° East 460 529 35,000  Level Winnipeg Center
Sun 02:01:58 PM 49.5500 -100.8000 97° East 460 529 35,000  Level Winnipeg Center
Sun 02:02:58 PM 49.5333 -100.6000 90° East 450 518 35,000  Level Winnipeg Center
Sun 02:03:58 PM 49.5333 -100.4167 104° East 450 518 35,000  Level Winnipeg Center
Sun 02:04:58 PM 49.5000 -100.2167 98° East 460 529 35,000  Level Winnipeg Center
Sun 02:05:58 PM 49.4833 -100.0333 90° East 460 529 35,000  Level Winnipeg Center
Sun 02:06:58 PM 49.4833 -99.8167 90° East 460 529 35,000  Level Winnipeg Center
Sun 02:07:58 PM 49.4833 -99.6167 97° East 460 529 35,000  Level Winnipeg Center
Sun 02:08:58 PM 49.4667 -99.4167 90° East 460 529 35,000  Level Winnipeg Center
Sun 02:09:58 PM 49.4667 -99.2333 83° East 450 518 35,000 50 Level Winnipeg Center
Sun 02:10:58 PM 49.4833 -99.0333 98° East 460 529 35,100  Climbing Winnipeg Center
Sun 02:11:58 PM 49.4667 -98.8500 90° East 460 529 35,000 -50 Descending Winnipeg Center
Sun 02:12:58 PM 49.4667 -98.6333 99° East 460 529 35,000  Level Winnipeg Center
Sun 02:13:58 PM 49.4500 -98.4667 90° East 460 529 35,000  Level Winnipeg Center
Sun 02:14:58 PM 49.4500 -98.2833 90° East 460 529 35,000  Level Winnipeg Center
Sun 02:15:58 PM 49.4500 -98.0667 97° East 460 529 35,000  Level Winnipeg Center
Sun 02:16:58 PM 49.4333 -97.8667 83° East 460 529 35,000 50 Level Winnipeg Center
Sun 02:17:58 PM 49.4500 -97.6667 90° East 470 541 35,100  Climbing Winnipeg Center
Sun 02:18:58 PM 49.4500 -97.4833 97° East 460 529 35,000 -50 Descending Winnipeg Center
Sun 02:19:58 PM 49.4333 -97.2667 90° East 460 529 35,000  Level Winnipeg Center
Sun 02:20:58 PM 49.4333 -97.0667 97° East 460 529 35,000  Level Winnipeg Center
Sun 02:21:58 PM 49.4167 -96.8667 90° East 470 541 35,000  Level Winnipeg Center
Sun 02:22:58 PM 49.4167 -96.6833 90° East 470 541 35,000  Level Winnipeg Center
Sun 02:23:58 PM 49.4167 -96.4500 98° East 470 541 35,000  Level Winnipeg Center
Sun 02:24:58 PM 49.4000 -96.2667 97° East 470 541 35,000  Level Winnipeg Center
Sun 02:25:58 PM 49.3833 -96.0667 90° East 470 541 35,000  Level Winnipeg Center
Sun 02:26:58 PM 49.3833 -95.8667 97° East 470 541 35,000  Level Winnipeg Center
Sun 02:27:58 PM 49.3667 -95.6500 90° East 460 529 35,000  Level Winnipeg Center
Sun 02:28:58 PM 49.3667 -95.4833 90° East 460 529 35,000  Level Winnipeg Center
Sun 02:29:58 PM 49.3667 -95.2667 97° East 460 529 35,000  Level Winnipeg Center
Sun 02:30:58 PM 49.3500 -95.0667 98° East 460 529 35,000  Level Winnipeg Center
Sun 02:31:58 PM 49.3333 -94.8833 97° East 460 529 35,000  Level Winnipeg Center
Sun 02:32:58 PM 49.3167 -94.6833 90° East 460 529 35,000  Level Winnipeg Center
Sun 02:33:58 PM 49.3167 -94.4833 90° East 460 529 35,000  Level Winnipeg Center
Sun 02:34:58 PM 49.3167 -94.2667 107° East 470 541 35,000  Level Winnipeg Center
Sun 02:35:58 PM 49.2833 -94.1000 90° East 460 529 35,000  Level Winnipeg Center
Sun 02:36:58 PM 49.2833 -93.8833 90° East 460 529 35,000  Level Winnipeg Center
Sun 02:37:58 PM 49.2833 -93.6833 105° East 460 529 35,000  Level Winnipeg Center
Sun 02:38:58 PM 49.2500 -93.5000 90° East 460 529 35,000  Level Winnipeg Center
Sun 02:39:58 PM 49.2500 -93.3000 97° East 460 529 35,000  Level Winnipeg Center
Sun 02:40:58 PM 49.2333 -93.1000 98° East 460 529 35,000  Level Winnipeg Center
Sun 02:41:58 PM 49.2167 -92.9167 90° East 460 529 35,000  Level Winnipeg Center
Sun 02:42:58 PM 49.2167 -92.7167 104° East 460 529 35,000  Level Winnipeg Center
Sun 02:43:58 PM 49.1833 -92.5167 90° East 460 529 35,000  Level Winnipeg Center
Sun 02:44:58 PM 49.1833 -92.3333 97° East 460 529 35,000  Level Winnipeg Center
Sun 02:45:58 PM 49.1667 -92.1333 97° East 460 529 35,000  Level Winnipeg Center
Sun 02:46:58 PM 49.1500 -91.9333 97° East 460 529 35,000  Level Winnipeg Center
Sun 02:47:58 PM 49.1333 -91.7167 99° East 460 529 35,000  Level Winnipeg Center
Sun 02:48:58 PM 49.1167 -91.5500 97° East 460 529 35,000  Level Winnipeg Center
Sun 02:49:58 PM 49.1000 -91.3500 97° East 460 529 35,000  Level Winnipeg Center
Sun 02:50:58 PM 49.0833 -91.1333 99° East 460 529 35,000  Level Winnipeg Center
Sun 02:51:58 PM 49.0667 -90.9667 97° East 460 529 35,000  Level Winnipeg Center
Sun 02:52:58 PM 49.0500 -90.7667 98° East 460 529 35,000  Level Winnipeg Center
Sun 02:53:58 PM 49.0333 -90.5833 97° East 460 529 35,000  Level Winnipeg Center
Sun 02:54:58 PM 49.0167 -90.3833 97° East 460 529 35,000  Level Winnipeg Center
Sun 02:55:58 PM 49.0000 -90.1833 104° East 460 529 35,000  Level Winnipeg Center
Sun 02:56:58 PM 48.9667 -89.9833 90° East 460 529 35,000  Level Winnipeg Center
Sun 02:57:58 PM 48.9667 -89.8000 90° East 470 541 35,000  Level Winnipeg Center
Sun 02:58:58 PM 48.9667 -89.6000 97° East 460 529 35,000 250 Level Winnipeg Center
Sun 02:59:58 PM 48.9500 -89.4000 98° East 450 518 35,500 600 Climbing Winnipeg Center
Sun 03:00:58 PM 48.9333 -89.2167 90° East 440 506 36,200 450 Climbing Winnipeg Center
Sun 03:01:58 PM 48.9333 -89.0333 97° East 450 518 36,400 250 Climbing Winnipeg Center
Sun 03:02:58 PM 48.9167 -88.8333 97° East 450 518 36,700 200 Climbing Winnipeg Center
Sun 03:03:58 PM 48.9000 -88.6333 97° East 460 529 36,800 150 Climbing Winnipeg Center
Sun 03:04:58 PM 48.8833 -88.4333 99° East 470 541 37,000 100 Climbing Winnipeg Center
Sun 03:05:58 PM 48.8667 -88.2667 97° East 470 541 37,000  Level Winnipeg Center
Sun 03:06:58 PM 48.8500 -88.0500 97° East 470 541 37,000  Level Winnipeg Center
Sun 03:07:58 PM 48.8333 -87.8500 99° East 460 529 37,000  Level Winnipeg Center
Sun 03:08:58 PM 48.8167 -87.6833 90° East 450 518 37,000  Level Winnipeg Center
Sun 03:09:58 PM 48.8167 -87.4833 98° East 450 518 37,000  Level Winnipeg Center
Sun 03:10:58 PM 48.8000 -87.3000 97° East 460 529 37,000 50 Level Winnipeg Center
Sun 03:11:58 PM 48.7833 -87.1000 97° East 460 529 37,100  Climbing Winnipeg Center
Sun 03:12:58 PM 48.7667 -86.9000 98° East 460 529 37,000 -50 Descending Winnipeg Center
Sun 03:13:58 PM 48.7500 -86.7167 97° East 460 529 37,000  Level Winnipeg Center
Sun 03:14:58 PM 48.7333 -86.5167 99° East 460 529 37,000  Level Winnipeg Center
Sun 03:15:58 PM 48.7167 -86.3500 97° East 450 518 37,000  Level Winnipeg Center
Sun 03:16:58 PM 48.7000 -86.1500 104° East 450 518 37,000  Level Winnipeg Center
Sun 03:17:58 PM 48.6667 -85.9500 104° East 460 529 37,000  Level Winnipeg Center
Sun 03:18:58 PM 48.6333 -85.7500 107° East 460 529 37,000  Level Winnipeg Center
Sun 03:19:58 PM 48.6000 -85.5833 113° Southeast 460 529 37,000  Level Winnipeg Center
Sun 03:20:55 PM 48.5667 -85.4667 107° East 460 529 37,000  Level Toronto Center
Sun 03:21:55 PM 48.5333 -85.3000 103° East 460 529 37,000  Level Toronto Center
Sun 03:22:55 PM 48.5000 -85.0833 107° East 460 529 37,000  Level Toronto Center
Sun 03:23:55 PM 48.4667 -84.9167 112° Southeast 460 529 37,000  Level Toronto Center
Sun 03:24:55 PM 48.4167 -84.7333 98° East 460 529 37,000  Level Toronto Center
Sun 03:25:55 PM 48.4000 -84.5500 112° Southeast 460 529 37,000  Level Toronto Center
Sun 03:26:55 PM 48.3500 -84.3667 105° East 460 529 37,000  Level Toronto Center
Sun 03:27:55 PM 48.3167 -84.1833 111° Southeast 460 529 37,000  Level Toronto Center
Sun 03:28:26 PM 48.3000 -84.1167 105° East 450 518 37,000  Level Montreal Center
Sun 03:29:26 PM 48.2667 -83.9333 112° Southeast 460 529 37,000  Level Montreal Center
Sun 03:30:26 PM 48.2167 -83.7500 105° East 450 518 37,000  Level Montreal Center
Sun 03:31:26 PM 48.1833 -83.5667 105° East 450 518 37,000  Level Montreal Center
Sun 03:32:26 PM 48.1500 -83.3833 114° Southeast 450 518 37,000  Level Montreal Center
Sun 03:33:26 PM 48.1000 -83.2167 105° East 450 518 37,000  Level Montreal Center
Sun 03:34:26 PM 48.0667 -83.0333 105° East 450 518 37,000  Level Montreal Center
Sun 03:35:26 PM 48.0333 -82.8500 112° Southeast 450 518 37,000  Level Montreal Center
Sun 03:36:26 PM 47.9833 -82.6667 107° East 450 518 37,000  Level Montreal Center
Sun 03:37:26 PM 47.9500 -82.5000 105° East 460 529 37,000  Level Montreal Center
Sun 03:38:26 PM 47.9167 -82.3167 112° Southeast 460 529 37,000  Level Montreal Center
Sun 03:39:26 PM 47.8667 -82.1333 105° East 460 529 37,000  Level Montreal Center
Sun 03:40:26 PM 47.8333 -81.9500 112° Southeast 460 529 37,000  Level Montreal Center
Sun 03:41:26 PM 47.7833 -81.7667 105° East 460 529 37,000  Level Montreal Center
Sun 03:42:26 PM 47.7500 -81.5833 114° Southeast 460 529 37,000  Level Montreal Center
Sun 03:43:26 PM 47.7000 -81.4167 109° East 470 541 37,000  Level Montreal Center
Sun 03:44:26 PM 47.6500 -81.2000 116° Southeast 460 529 37,000  Level Montreal Center
Sun 03:45:26 PM 47.6000 -81.0500 104° East 470 541 37,000  Level Montreal Center
Sun 03:46:26 PM 47.5667 -80.8500 112° Southeast 470 541 37,000  Level Montreal Center
Sun 03:47:26 PM 47.5167 -80.6667 105° East 470 541 37,000  Level Montreal Center
Sun 03:48:26 PM 47.4833 -80.4833 114° Southeast 470 541 37,000  Level Montreal Center
Sun 03:49:26 PM 47.4333 -80.3167 105° East 470 541 37,000  Level Montreal Center
Sun 03:50:26 PM 47.4000 -80.1333 110° East 470 541 37,000  Level Montreal Center
Sun 03:51:26 PM 47.3500 -79.9333 116° Southeast 470 541 37,000  Level Montreal Center
Sun 03:52:26 PM 47.3000 -79.7833 110° East 470 541 37,000  Level Montreal Center
Sun 03:53:26 PM 47.2500 -79.5833 112° Southeast 470 541 37,000  Level Montreal Center
Sun 03:54:26 PM 47.2000 -79.4000 114° Southeast 470 541 37,000  Level Montreal Center
Sun 03:55:26 PM 47.1500 -79.2333 104° East 470 541 37,000  Level Montreal Center
Sun 03:56:26 PM 47.1167 -79.0333 112° Southeast 470 541 37,000  Level Montreal Center
Sun 03:57:26 PM 47.0667 -78.8500 114° Southeast 470 541 37,000  Level Montreal Center
Sun 03:58:26 PM 47.0167 -78.6833 112° Southeast 470 541 37,000  Level Montreal Center
Sun 03:59:26 PM 46.9667 -78.5000 106° East 470 541 37,000 -150 Level Montreal Center
Sun 04:00:26 PM 46.9333 -78.3333 112° Southeast 460 529 36,700 -650 Descending Montreal Center
Sun 04:01:26 PM 46.8833 -78.1500 114° Southeast 460 529 35,700 -950 Descending Montreal Center
Sun 04:02:26 PM 46.8333 -77.9833 112° Southeast 460 529 34,800 -950 Descending Montreal Center
Sun 04:03:26 PM 46.7833 -77.8000 114° Southeast 460 529 33,800 -900 Descending Montreal Center
Sun 04:04:26 PM 46.7333 -77.6333 110° East 460 529 33,000 -400 Descending Montreal Center
Sun 04:05:26 PM 46.6833 -77.4333 108° East 460 529 33,000  Level Montreal Center
Sun 04:06:26 PM 46.6500 -77.2833 97° East 450 518 33,000  Level Montreal Center
Sun 04:07:26 PM 46.6333 -77.0833 106° East 450 518 33,000 -150 Level Montreal Center
Sun 04:08:26 PM 46.6000 -76.9167 114° Southeast 450 518 32,700 -650 Descending Montreal Center
Sun 04:09:26 PM 46.5500 -76.7500 106° East 450 518 31,700 -950 Descending Montreal Center
Sun 04:10:26 PM 46.5167 -76.5833 105° East 450 518 30,800 -950 Descending Montreal Center
Sun 04:11:26 PM 46.4833 -76.4000 106° East 450 518 29,800 -850 Descending Montreal Center
Sun 04:12:26 PM 46.4500 -76.2333 106° East 440 506 29,100 -400 Descending Montreal Center
Sun 04:13:26 PM 46.4167 -76.0667 104° East 440 506 29,000 -50 Descending Montreal Center
Sun 04:14:26 PM 46.3833 -75.8667 106° East 440 506 29,000  Level Montreal Center
Sun 04:15:26 PM 46.3500 -75.7000 108° East 450 518 29,000 -718 Level Montreal Center
Sun 04:17:55 PM 46.2500 -75.2500 116° Southeast 450 518 26,500 -1,133 Descending Toronto Center
Sun 04:18:26 PM 46.2333 -75.2000 105° East 440 506 25,600 -2,044 Descending Montreal Center
Sun 04:19:26 PM 46.2000 -75.0167 118° Southeast 430 495 23,400 -2,000 Descending Montreal Center
Sun 04:20:26 PM 46.1500 -74.8833 106° East 430 495 21,600 -1,800 Descending Montreal Center
Sun 04:21:26 PM 46.1167 -74.7167 108° East 410 472 19,800 -1,900 Descending Montreal Center
Sun 04:22:26 PM 46.0833 -74.5667 99° East 390 449 17,800 -1,900 Descending Montreal Center
Sun 04:23:26 PM 46.0667 -74.4167 118° Southeast 380 437 16,000 -2,050 Descending Montreal Center
Sun 04:24:26 PM 46.0167 -74.2833 126° Southeast 360 414 13,700 -1,850 Descending Montreal Center
Sun 04:25:26 PM 45.9667 -74.1833 134° Southeast 350 403 12,300 -1,650 Descending Montreal Center
Sun 04:26:26 PM 45.9000 -74.0833 120° Southeast 320 368 10,400 -1,550 Descending Montreal Center
Sun 04:27:26 PM 45.8667 -74.0000 126° Southeast 280 322 9,200 -1,250 Descending Montreal Center
Sun 04:28:26 PM 45.8167 -73.9000 116° Southeast 270 311 7,900 -1,400 Descending Montreal Center
Sun 04:29:26 PM 45.7833 -73.8000 137° Southeast 260 299 6,400 -1,450 Descending Montreal Center
Sun 04:30:26 PM 45.7333 -73.7333 115° Southeast 250 288 5,000 -1,350 Descending Montreal Center
Sun 04:31:26 PM 45.7000 -73.6333 155° Southeast 250 288 3,700 -950 Descending Montreal Center
Sun 04:32:26 PM 45.6500 -73.6000 155° Southeast 240 276 3,100 -350 Descending Montreal Center
Sun 04:33:26 PM 45.6000 -73.5667 226° Southwest 210 242 3,000 -300 Descending Montreal Center
Sun 04:34:26 PM 45.5667 -73.6167 215° Southwest 180 207 2,500 -700 Descending Montreal Center
Sun 04:35:26 PM 45.5333 -73.6500 215° Southwest 170 196 1,600 -900 Descending Montreal Center

Login

Don't have an account? Register now (free) for customized features, flight alerts, and more!